sensor_id;sensor_type;location;lat;lon;timestamp;P1;durP1;ratioP1;P2;durP2;ratioP2
16731;SDS011;8484;50.904;9.192;2024-03-02T00:00:19;15.60;;;12.13;;
16731;SDS011;8484;50.904;9.192;2024-03-02T00:02:47;16.43;;;12.77;;
16731;SDS011;8484;50.904;9.192;2024-03-02T00:05:15;17.63;;;12.27;;
16731;SDS011;8484;50.904;9.192;2024-03-02T00:07:44;17.33;;;11.80;;
16731;SDS011;8484;50.904;9.192;2024-03-02T00:10:13;16.27;;;11.53;;
16731;SDS011;8484;50.904;9.192;2024-03-02T00:12:42;14.23;;;10.73;;
16731;SDS011;8484;50.904;9.192;2024-03-02T00:15:20;16.23;;;11.77;;
16731;SDS011;8484;50.904;9.192;2024-03-02T00:18:03;15.43;;;10.83;;
16731;SDS011;8484;50.904;9.192;2024-03-02T00:20:30;17.80;;;11.73;;
16731;SDS011;8484;50.904;9.192;2024-03-02T00:23:00;15.00;;;11.53;;
16731;SDS011;8484;50.904;9.192;2024-03-02T00:25:35;16.97;;;12.03;;
16731;SDS011;8484;50.904;9.192;2024-03-02T00:28:04;14.97;;;10.93;;
16731;SDS011;8484;50.904;9.192;2024-03-02T00:30:43;15.53;;;11.87;;
16731;SDS011;8484;50.904;9.192;2024-03-02T00:33:31;14.63;;;11.37;;
16731;SDS011;8484;50.904;9.192;2024-03-02T00:35:59;16.93;;;11.90;;
16731;SDS011;8484;50.904;9.192;2024-03-02T00:38:27;15.47;;;11.63;;
16731;SDS011;8484;50.904;9.192;2024-03-02T00:40:54;14.77;;;11.90;;
16731;SDS011;8484;50.904;9.192;2024-03-02T00:43:44;15.73;;;11.87;;
16731;SDS011;8484;50.904;9.192;2024-03-02T00:46:16;18.20;;;12.70;;
16731;SDS011;8484;50.904;9.192;2024-03-02T00:48:47;19.87;;;13.17;;
16731;SDS011;8484;50.904;9.192;2024-03-02T00:51:18;16.87;;;12.30;;
16731;SDS011;8484;50.904;9.192;2024-03-02T00:53:44;19.30;;;12.10;;
16731;SDS011;8484;50.904;9.192;2024-03-02T00:56:12;16.83;;;12.00;;
16731;SDS011;8484;50.904;9.192;2024-03-02T00:58:39;16.33;;;11.57;;
16731;SDS011;8484;50.904;9.192;2024-03-02T01:01:06;15.53;;;11.83;;
16731;SDS011;8484;50.904;9.192;2024-03-02T01:03:34;15.27;;;11.20;;
16731;SDS011;8484;50.904;9.192;2024-03-02T01:06:02;13.63;;;10.37;;
16731;SDS011;8484;50.904;9.192;2024-03-02T01:08:30;11.97;;;9.77;;
16731;SDS011;8484;50.904;9.192;2024-03-02T01:10:57;12.93;;;10.40;;
16731;SDS011;8484;50.904;9.192;2024-03-02T01:13:24;12.67;;;10.00;;
16731;SDS011;8484;50.904;9.192;2024-03-02T01:15:51;12.37;;;9.43;;
16731;SDS011;8484;50.904;9.192;2024-03-02T01:18:18;11.93;;;9.37;;
16731;SDS011;8484;50.904;9.192;2024-03-02T01:20:46;10.53;;;8.53;;
16731;SDS011;8484;50.904;9.192;2024-03-02T01:23:16;11.30;;;8.67;;
16731;SDS011;8484;50.904;9.192;2024-03-02T01:25:44;11.50;;;8.37;;
16731;SDS011;8484;50.904;9.192;2024-03-02T01:28:11;13.80;;;10.00;;
16731;SDS011;8484;50.904;9.192;2024-03-02T01:30:38;12.73;;;9.20;;
16731;SDS011;8484;50.904;9.192;2024-03-02T01:33:05;13.03;;;9.50;;
16731;SDS011;8484;50.904;9.192;2024-03-02T01:35:32;13.60;;;9.63;;
16731;SDS011;8484;50.904;9.192;2024-03-02T01:38:01;13.40;;;10.03;;
16731;SDS011;8484;50.904;9.192;2024-03-02T01:40:28;15.07;;;11.07;;
16731;SDS011;8484;50.904;9.192;2024-03-02T01:42:55;15.07;;;11.67;;
16731;SDS011;8484;50.904;9.192;2024-03-02T01:45:23;16.50;;;11.30;;
16731;SDS011;8484;50.904;9.192;2024-03-02T01:47:50;16.40;;;11.23;;
16731;SDS011;8484;50.904;9.192;2024-03-02T01:50:24;14.63;;;10.70;;
16731;SDS011;8484;50.904;9.192;2024-03-02T01:52:51;16.23;;;12.70;;
16731;SDS011;8484;50.904;9.192;2024-03-02T01:55:20;20.27;;;13.90;;
16731;SDS011;8484;50.904;9.192;2024-03-02T01:57:47;20.37;;;12.87;;
16731;SDS011;8484;50.904;9.192;2024-03-02T02:00:14;19.30;;;13.07;;
16731;SDS011;8484;50.904;9.192;2024-03-02T02:02:41;24.00;;;14.07;;
16731;SDS011;8484;50.904;9.192;2024-03-02T02:05:09;19.90;;;13.90;;
16731;SDS011;8484;50.904;9.192;2024-03-02T02:07:36;21.27;;;14.63;;
16731;SDS011;8484;50.904;9.192;2024-03-02T02:10:03;20.47;;;14.23;;
16731;SDS011;8484;50.904;9.192;2024-03-02T02:12:32;22.83;;;15.03;;
16731;SDS011;8484;50.904;9.192;2024-03-02T02:14:59;23.00;;;15.33;;
16731;SDS011;8484;50.904;9.192;2024-03-02T02:17:26;21.33;;;14.70;;
16731;SDS011;8484;50.904;9.192;2024-03-02T02:19:52;23.73;;;14.80;;
16731;SDS011;8484;50.904;9.192;2024-03-02T02:22:21;19.83;;;13.47;;
16731;SDS011;8484;50.904;9.192;2024-03-02T02:24:48;21.43;;;14.40;;
16731;SDS011;8484;50.904;9.192;2024-03-02T02:27:15;28.57;;;15.73;;
16731;SDS011;8484;50.904;9.192;2024-03-02T02:29:41;22.53;;;14.73;;
16731;SDS011;8484;50.904;9.192;2024-03-02T02:32:08;20.87;;;14.43;;
16731;SDS011;8484;50.904;9.192;2024-03-02T02:34:35;21.77;;;15.47;;
16731;SDS011;8484;50.904;9.192;2024-03-02T02:37:02;24.60;;;16.27;;
16731;SDS011;8484;50.904;9.192;2024-03-02T02:39:30;28.27;;;17.77;;
16731;SDS011;8484;50.904;9.192;2024-03-02T02:41:57;28.20;;;17.60;;
16731;SDS011;8484;50.904;9.192;2024-03-02T02:44:26;29.73;;;17.07;;
16731;SDS011;8484;50.904;9.192;2024-03-02T02:46:53;24.67;;;16.07;;
16731;SDS011;8484;50.904;9.192;2024-03-02T02:49:19;23.93;;;16.50;;
16731;SDS011;8484;50.904;9.192;2024-03-02T02:51:46;25.27;;;16.63;;
16731;SDS011;8484;50.904;9.192;2024-03-02T02:54:13;24.93;;;16.33;;
16731;SDS011;8484;50.904;9.192;2024-03-02T02:56:41;26.67;;;17.20;;
16731;SDS011;8484;50.904;9.192;2024-03-02T02:59:08;31.37;;;19.50;;
16731;SDS011;8484;50.904;9.192;2024-03-02T03:01:35;29.20;;;18.97;;
16731;SDS011;8484;50.904;9.192;2024-03-02T03:04:02;33.60;;;18.93;;
16731;SDS011;8484;50.904;9.192;2024-03-02T03:06:29;29.70;;;18.90;;
16731;SDS011;8484;50.904;9.192;2024-03-02T03:08:56;29.60;;;18.40;;
16731;SDS011;8484;50.904;9.192;2024-03-02T03:11:22;33.63;;;17.70;;
16731;SDS011;8484;50.904;9.192;2024-03-02T03:13:52;28.00;;;18.50;;
16731;SDS011;8484;50.904;9.192;2024-03-02T03:16:20;28.27;;;18.37;;
16731;SDS011;8484;50.904;9.192;2024-03-02T03:18:47;31.87;;;18.73;;
16731;SDS011;8484;50.904;9.192;2024-03-02T03:21:16;25.07;;;17.00;;
16731;SDS011;8484;50.904;9.192;2024-03-02T03:23:43;28.03;;;15.87;;
16731;SDS011;8484;50.904;9.192;2024-03-02T03:26:10;26.57;;;16.83;;
16731;SDS011;8484;50.904;9.192;2024-03-02T03:28:37;27.13;;;17.30;;
16731;SDS011;8484;50.904;9.192;2024-03-02T03:31:05;29.23;;;18.47;;
16731;SDS011;8484;50.904;9.192;2024-03-02T03:33:32;30.00;;;19.10;;
16731;SDS011;8484;50.904;9.192;2024-03-02T03:35:59;27.77;;;18.40;;
16731;SDS011;8484;50.904;9.192;2024-03-02T03:38:28;31.30;;;18.10;;
16731;SDS011;8484;50.904;9.192;2024-03-02T03:40:55;26.47;;;17.13;;
16731;SDS011;8484;50.904;9.192;2024-03-02T03:43:22;30.83;;;17.80;;
16731;SDS011;8484;50.904;9.192;2024-03-02T03:45:49;24.30;;;18.00;;
16731;SDS011;8484;50.904;9.192;2024-03-02T03:48:17;27.70;;;18.60;;
16731;SDS011;8484;50.904;9.192;2024-03-02T03:50:44;35.37;;;19.93;;
16731;SDS011;8484;50.904;9.192;2024-03-02T03:53:11;32.83;;;19.03;;
16731;SDS011;8484;50.904;9.192;2024-03-02T03:55:39;32.90;;;18.80;;
16731;SDS011;8484;50.904;9.192;2024-03-02T03:58:06;31.73;;;19.70;;
16731;SDS011;8484;50.904;9.192;2024-03-02T04:00:33;32.47;;;20.20;;
16731;SDS011;8484;50.904;9.192;2024-03-02T04:03:00;38.13;;;21.27;;
16731;SDS011;8484;50.904;9.192;2024-03-02T04:05:29;39.27;;;21.50;;
16731;SDS011;8484;50.904;9.192;2024-03-02T04:07:56;34.57;;;20.33;;
16731;SDS011;8484;50.904;9.192;2024-03-02T04:10:22;37.63;;;21.00;;
16731;SDS011;8484;50.904;9.192;2024-03-02T04:12:49;36.67;;;20.60;;
16731;SDS011;8484;50.904;9.192;2024-03-02T04:15:16;34.80;;;21.27;;
16731;SDS011;8484;50.904;9.192;2024-03-02T04:17:44;31.93;;;20.27;;
16731;SDS011;8484;50.904;9.192;2024-03-02T04:20:11;30.37;;;19.93;;
16731;SDS011;8484;50.904;9.192;2024-03-02T04:22:40;30.93;;;19.07;;
16731;SDS011;8484;50.904;9.192;2024-03-02T04:25:07;30.33;;;18.60;;
16731;SDS011;8484;50.904;9.192;2024-03-02T04:27:34;28.70;;;18.57;;
16731;SDS011;8484;50.904;9.192;2024-03-02T04:30:02;30.97;;;19.73;;
16731;SDS011;8484;50.904;9.192;2024-03-02T04:32:30;27.03;;;18.37;;
16731;SDS011;8484;50.904;9.192;2024-03-02T04:34:57;25.67;;;18.13;;
16731;SDS011;8484;50.904;9.192;2024-03-02T04:37:24;24.43;;;17.80;;
16731;SDS011;8484;50.904;9.192;2024-03-02T04:39:52;26.17;;;17.67;;
16731;SDS011;8484;50.904;9.192;2024-03-02T04:42:19;26.43;;;17.63;;
16731;SDS011;8484;50.904;9.192;2024-03-02T04:44:47;27.03;;;17.73;;
16731;SDS011;8484;50.904;9.192;2024-03-02T04:47:14;27.47;;;16.57;;
16731;SDS011;8484;50.904;9.192;2024-03-02T04:49:41;24.40;;;17.30;;
16731;SDS011;8484;50.904;9.192;2024-03-02T04:52:08;22.10;;;15.47;;
16731;SDS011;8484;50.904;9.192;2024-03-02T04:54:35;25.00;;;16.53;;
16731;SDS011;8484;50.904;9.192;2024-03-02T04:57:24;23.70;;;16.37;;
16731;SDS011;8484;50.904;9.192;2024-03-02T04:59:50;24.10;;;16.30;;
16731;SDS011;8484;50.904;9.192;2024-03-02T05:02:17;23.60;;;16.00;;
16731;SDS011;8484;50.904;9.192;2024-03-02T05:04:44;24.10;;;15.70;;
16731;SDS011;8484;50.904;9.192;2024-03-02T05:07:13;23.43;;;16.33;;
16731;SDS011;8484;50.904;9.192;2024-03-02T05:09:40;26.33;;;17.37;;
16731;SDS011;8484;50.904;9.192;2024-03-02T05:12:07;28.90;;;18.20;;
16731;SDS011;8484;50.904;9.192;2024-03-02T05:15:13;29.53;;;18.67;;
16731;SDS011;8484;50.904;9.192;2024-03-02T05:17:41;31.33;;;18.30;;
16731;SDS011;8484;50.904;9.192;2024-03-02T05:20:09;31.60;;;19.57;;
16731;SDS011;8484;50.904;9.192;2024-03-02T05:22:36;33.57;;;20.20;;
16731;SDS011;8484;50.904;9.192;2024-03-02T05:25:04;34.57;;;19.60;;
16731;SDS011;8484;50.904;9.192;2024-03-02T05:27:32;27.67;;;17.27;;
16731;SDS011;8484;50.904;9.192;2024-03-02T05:29:59;30.53;;;19.60;;
16731;SDS011;8484;50.904;9.192;2024-03-02T05:32:28;31.73;;;20.27;;
16731;SDS011;8484;50.904;9.192;2024-03-02T05:34:55;31.13;;;19.80;;
16731;SDS011;8484;50.904;9.192;2024-03-02T05:37:21;31.30;;;20.37;;
16731;SDS011;8484;50.904;9.192;2024-03-02T05:39:48;48.13;;;27.37;;
16731;SDS011;8484;50.904;9.192;2024-03-02T05:42:15;42.40;;;27.33;;
16731;SDS011;8484;50.904;9.192;2024-03-02T05:44:42;40.73;;;24.47;;
16731;SDS011;8484;50.904;9.192;2024-03-02T05:47:09;38.00;;;24.37;;
16731;SDS011;8484;50.904;9.192;2024-03-02T05:49:37;33.83;;;22.73;;
16731;SDS011;8484;50.904;9.192;2024-03-02T05:52:05;30.27;;;21.47;;
16731;SDS011;8484;50.904;9.192;2024-03-02T05:54:32;27.93;;;19.50;;
16731;SDS011;8484;50.904;9.192;2024-03-02T05:56:59;30.17;;;19.80;;
16731;SDS011;8484;50.904;9.192;2024-03-02T05:59:42;29.57;;;19.00;;
16731;SDS011;8484;50.904;9.192;2024-03-02T06:02:09;26.23;;;18.13;;
16731;SDS011;8484;50.904;9.192;2024-03-02T06:04:36;31.60;;;20.33;;
16731;SDS011;8484;50.904;9.192;2024-03-02T06:07:04;31.83;;;20.93;;
16731;SDS011;8484;50.904;9.192;2024-03-02T06:09:31;35.27;;;22.93;;
16731;SDS011;8484;50.904;9.192;2024-03-02T06:11:58;40.77;;;24.47;;
16731;SDS011;8484;50.904;9.192;2024-03-02T06:14:25;36.67;;;24.83;;
16731;SDS011;8484;50.904;9.192;2024-03-02T06:16:52;38.57;;;24.33;;
16731;SDS011;8484;50.904;9.192;2024-03-02T06:19:19;29.43;;;20.57;;
16731;SDS011;8484;50.904;9.192;2024-03-02T06:21:47;31.00;;;19.90;;
16731;SDS011;8484;50.904;9.192;2024-03-02T06:24:14;29.03;;;19.10;;
16731;SDS011;8484;50.904;9.192;2024-03-02T06:26:41;29.83;;;19.23;;
16731;SDS011;8484;50.904;9.192;2024-03-02T06:29:08;31.43;;;19.63;;
16731;SDS011;8484;50.904;9.192;2024-03-02T06:31:34;33.30;;;20.43;;
16731;SDS011;8484;50.904;9.192;2024-03-02T06:34:01;33.67;;;21.43;;
16731;SDS011;8484;50.904;9.192;2024-03-02T06:36:29;35.20;;;20.70;;
16731;SDS011;8484;50.904;9.192;2024-03-02T06:38:58;37.63;;;22.30;;
16731;SDS011;8484;50.904;9.192;2024-03-02T06:41:25;36.93;;;21.33;;
16731;SDS011;8484;50.904;9.192;2024-03-02T06:43:52;38.93;;;22.00;;
16731;SDS011;8484;50.904;9.192;2024-03-02T06:46:24;38.30;;;22.13;;
16731;SDS011;8484;50.904;9.192;2024-03-02T06:48:51;37.80;;;23.53;;
16731;SDS011;8484;50.904;9.192;2024-03-02T06:51:18;40.57;;;23.00;;
16731;SDS011;8484;50.904;9.192;2024-03-02T06:53:45;43.00;;;23.07;;
16731;SDS011;8484;50.904;9.192;2024-03-02T06:56:13;40.80;;;23.10;;
16731;SDS011;8484;50.904;9.192;2024-03-02T06:58:40;40.13;;;23.97;;
16731;SDS011;8484;50.904;9.192;2024-03-02T07:01:08;42.50;;;26.47;;
16731;SDS011;8484;50.904;9.192;2024-03-02T07:03:35;48.50;;;27.13;;
16731;SDS011;8484;50.904;9.192;2024-03-02T07:06:02;48.73;;;27.60;;
16731;SDS011;8484;50.904;9.192;2024-03-02T07:08:29;45.33;;;26.57;;
16731;SDS011;8484;50.904;9.192;2024-03-02T07:10:56;39.53;;;24.77;;
16731;SDS011;8484;50.904;9.192;2024-03-02T07:13:24;35.90;;;22.50;;
16731;SDS011;8484;50.904;9.192;2024-03-02T07:15:52;35.70;;;21.83;;
16731;SDS011;8484;50.904;9.192;2024-03-02T07:18:47;29.87;;;20.27;;
16731;SDS011;8484;50.904;9.192;2024-03-02T07:21:16;29.47;;;19.30;;
16731;SDS011;8484;50.904;9.192;2024-03-02T07:23:43;28.90;;;18.40;;
16731;SDS011;8484;50.904;9.192;2024-03-02T07:26:10;30.37;;;19.03;;
16731;SDS011;8484;50.904;9.192;2024-03-02T07:28:38;25.37;;;18.13;;
16731;SDS011;8484;50.904;9.192;2024-03-02T07:31:05;23.27;;;17.20;;
16731;SDS011;8484;50.904;9.192;2024-03-02T07:33:32;23.70;;;17.10;;
16731;SDS011;8484;50.904;9.192;2024-03-02T07:36:00;23.13;;;17.50;;
16731;SDS011;8484;50.904;9.192;2024-03-02T07:38:27;22.30;;;16.23;;
16731;SDS011;8484;50.904;9.192;2024-03-02T07:40:55;24.67;;;17.33;;
16731;SDS011;8484;50.904;9.192;2024-03-02T07:43:22;20.67;;;16.17;;
16731;SDS011;8484;50.904;9.192;2024-03-02T07:45:50;21.17;;;16.23;;
16731;SDS011;8484;50.904;9.192;2024-03-02T07:48:18;20.47;;;16.07;;
16731;SDS011;8484;50.904;9.192;2024-03-02T07:50:45;21.30;;;15.80;;
16731;SDS011;8484;50.904;9.192;2024-03-02T07:53:11;20.83;;;15.83;;
16731;SDS011;8484;50.904;9.192;2024-03-02T07:55:39;20.67;;;14.87;;
16731;SDS011;8484;50.904;9.192;2024-03-02T07:58:06;20.40;;;15.27;;
16731;SDS011;8484;50.904;9.192;2024-03-02T08:00:33;19.20;;;15.13;;
16731;SDS011;8484;50.904;9.192;2024-03-02T08:03:01;19.37;;;16.03;;
16731;SDS011;8484;50.904;9.192;2024-03-02T08:05:29;21.10;;;16.97;;
16731;SDS011;8484;50.904;9.192;2024-03-02T08:07:55;18.80;;;14.83;;
16731;SDS011;8484;50.904;9.192;2024-03-02T08:10:22;23.80;;;19.03;;
16731;SDS011;8484;50.904;9.192;2024-03-02T08:12:49;24.70;;;17.57;;
16731;SDS011;8484;50.904;9.192;2024-03-02T08:15:16;24.20;;;18.80;;
16731;SDS011;8484;50.904;9.192;2024-03-02T08:17:43;23.80;;;17.93;;
16731;SDS011;8484;50.904;9.192;2024-03-02T08:20:15;23.23;;;18.33;;
16731;SDS011;8484;50.904;9.192;2024-03-02T08:22:42;21.93;;;17.73;;
16731;SDS011;8484;50.904;9.192;2024-03-02T08:25:09;22.53;;;17.33;;
16731;SDS011;8484;50.904;9.192;2024-03-02T08:27:36;18.77;;;15.13;;
16731;SDS011;8484;50.904;9.192;2024-03-02T08:30:04;19.33;;;14.03;;
16731;SDS011;8484;50.904;9.192;2024-03-02T08:32:33;17.20;;;13.20;;
16731;SDS011;8484;50.904;9.192;2024-03-02T08:35:00;18.10;;;13.60;;
16731;SDS011;8484;50.904;9.192;2024-03-02T08:37:28;17.00;;;12.30;;
16731;SDS011;8484;50.904;9.192;2024-03-02T08:39:55;19.17;;;14.73;;
16731;SDS011;8484;50.904;9.192;2024-03-02T08:42:22;18.00;;;12.17;;
16731;SDS011;8484;50.904;9.192;2024-03-02T08:44:49;14.73;;;11.40;;
16731;SDS011;8484;50.904;9.192;2024-03-02T08:47:16;16.93;;;11.57;;
16731;SDS011;8484;50.904;9.192;2024-03-02T08:49:43;18.80;;;12.07;;
16731;SDS011;8484;50.904;9.192;2024-03-02T08:52:10;14.93;;;11.33;;
16731;SDS011;8484;50.904;9.192;2024-03-02T08:54:39;16.13;;;12.07;;
16731;SDS011;8484;50.904;9.192;2024-03-02T08:57:06;13.27;;;11.40;;
16731;SDS011;8484;50.904;9.192;2024-03-02T08:59:33;12.10;;;9.80;;
16731;SDS011;8484;50.904;9.192;2024-03-02T09:02:00;12.60;;;9.63;;
16731;SDS011;8484;50.904;9.192;2024-03-02T09:04:27;11.23;;;9.33;;
16731;SDS011;8484;50.904;9.192;2024-03-02T09:06:54;12.90;;;9.23;;
16731;SDS011;8484;50.904;9.192;2024-03-02T09:09:21;10.53;;;9.10;;
16731;SDS011;8484;50.904;9.192;2024-03-02T09:11:49;11.43;;;9.70;;
16731;SDS011;8484;50.904;9.192;2024-03-02T09:14:16;11.07;;;9.57;;
16731;SDS011;8484;50.904;9.192;2024-03-02T09:16:43;11.80;;;9.67;;
16731;SDS011;8484;50.904;9.192;2024-03-02T09:19:10;10.57;;;8.97;;
16731;SDS011;8484;50.904;9.192;2024-03-02T09:21:37;11.43;;;8.97;;
16731;SDS011;8484;50.904;9.192;2024-03-02T09:24:04;10.93;;;9.83;;
16731;SDS011;8484;50.904;9.192;2024-03-02T09:26:31;10.47;;;9.37;;
16731;SDS011;8484;50.904;9.192;2024-03-02T09:29:00;11.10;;;9.37;;
16731;SDS011;8484;50.904;9.192;2024-03-02T09:31:27;9.77;;;7.70;;
16731;SDS011;8484;50.904;9.192;2024-03-02T09:33:54;10.47;;;8.70;;
16731;SDS011;8484;50.904;9.192;2024-03-02T09:36:21;8.27;;;7.27;;
16731;SDS011;8484;50.904;9.192;2024-03-02T09:38:49;8.83;;;7.93;;
16731;SDS011;8484;50.904;9.192;2024-03-02T09:41:16;9.77;;;8.77;;
16731;SDS011;8484;50.904;9.192;2024-03-02T09:43:43;11.17;;;7.97;;
16731;SDS011;8484;50.904;9.192;2024-03-02T09:46:11;8.70;;;7.80;;
16731;SDS011;8484;50.904;9.192;2024-03-02T09:48:38;9.20;;;7.87;;
16731;SDS011;8484;50.904;9.192;2024-03-02T09:51:05;8.73;;;7.30;;
16731;SDS011;8484;50.904;9.192;2024-03-02T09:53:33;9.90;;;8.40;;
16731;SDS011;8484;50.904;9.192;2024-03-02T09:56:00;10.00;;;6.97;;
16731;SDS011;8484;50.904;9.192;2024-03-02T09:58:27;8.47;;;7.57;;
16731;SDS011;8484;50.904;9.192;2024-03-02T10:00:55;8.53;;;7.63;;
16731;SDS011;8484;50.904;9.192;2024-03-02T10:03:23;8.17;;;7.30;;
16731;SDS011;8484;50.904;9.192;2024-03-02T10:05:53;7.80;;;7.00;;
16731;SDS011;8484;50.904;9.192;2024-03-02T10:08:19;7.73;;;6.87;;
16731;SDS011;8484;50.904;9.192;2024-03-02T10:10:46;6.93;;;6.23;;
16731;SDS011;8484;50.904;9.192;2024-03-02T10:13:13;8.87;;;6.33;;
16731;SDS011;8484;50.904;9.192;2024-03-02T10:15:41;7.23;;;6.20;;
16731;SDS011;8484;50.904;9.192;2024-03-02T10:18:08;6.57;;;5.87;;
16731;SDS011;8484;50.904;9.192;2024-03-02T10:20:38;6.67;;;5.87;;
16731;SDS011;8484;50.904;9.192;2024-03-02T10:23:12;7.17;;;6.00;;
16731;SDS011;8484;50.904;9.192;2024-03-02T10:25:41;6.20;;;5.53;;
16731;SDS011;8484;50.904;9.192;2024-03-02T10:28:08;6.80;;;6.10;;
16731;SDS011;8484;50.904;9.192;2024-03-02T10:30:35;6.00;;;5.40;;
16731;SDS011;8484;50.904;9.192;2024-03-02T10:33:02;5.87;;;5.27;;
16731;SDS011;8484;50.904;9.192;2024-03-02T10:35:32;6.77;;;5.90;;
16731;SDS011;8484;50.904;9.192;2024-03-02T10:38:03;6.53;;;5.73;;
16731;SDS011;8484;50.904;9.192;2024-03-02T10:40:30;5.93;;;5.03;;
16731;SDS011;8484;50.904;9.192;2024-03-02T10:42:58;6.90;;;5.10;;
16731;SDS011;8484;50.904;9.192;2024-03-02T10:45:26;7.37;;;6.57;;
16731;SDS011;8484;50.904;9.192;2024-03-02T10:47:54;6.47;;;5.63;;
16731;SDS011;8484;50.904;9.192;2024-03-02T10:50:21;5.33;;;4.83;;
16731;SDS011;8484;50.904;9.192;2024-03-02T10:52:50;7.33;;;5.93;;
16731;SDS011;8484;50.904;9.192;2024-03-02T10:55:18;4.67;;;4.20;;
16731;SDS011;8484;50.904;9.192;2024-03-02T10:57:48;7.00;;;6.27;;
16731;SDS011;8484;50.904;9.192;2024-03-02T11:00:17;6.07;;;5.47;;
16731;SDS011;8484;50.904;9.192;2024-03-02T11:02:50;8.47;;;5.90;;
16731;SDS011;8484;50.904;9.192;2024-03-02T11:05:20;6.27;;;5.33;;
16731;SDS011;8484;50.904;9.192;2024-03-02T11:07:53;6.83;;;6.13;;
16731;SDS011;8484;50.904;9.192;2024-03-02T11:10:27;6.57;;;5.83;;
16731;SDS011;8484;50.904;9.192;2024-03-02T11:13:00;6.70;;;5.90;;
16731;SDS011;8484;50.904;9.192;2024-03-02T11:15:31;8.97;;;5.17;;
16731;SDS011;8484;50.904;9.192;2024-03-02T11:18:00;6.23;;;5.60;;
16731;SDS011;8484;50.904;9.192;2024-03-02T11:20:30;6.23;;;4.77;;
16731;SDS011;8484;50.904;9.192;2024-03-02T11:22:58;6.67;;;5.73;;
16731;SDS011;8484;50.904;9.192;2024-03-02T11:25:32;5.97;;;5.37;;
16731;SDS011;8484;50.904;9.192;2024-03-02T11:28:00;5.67;;;5.07;;
16731;SDS011;8484;50.904;9.192;2024-03-02T11:33:24;5.97;;;5.37;;
16731;SDS011;8484;50.904;9.192;2024-03-02T11:35:56;5.10;;;4.60;;
16731;SDS011;8484;50.904;9.192;2024-03-02T11:38:27;5.33;;;4.27;;
16731;SDS011;8484;50.904;9.192;2024-03-02T11:40:58;4.07;;;3.67;;
16731;SDS011;8484;50.904;9.192;2024-03-02T11:43:27;4.47;;;4.00;;
16731;SDS011;8484;50.904;9.192;2024-03-02T11:45:57;4.00;;;3.63;;
16731;SDS011;8484;50.904;9.192;2024-03-02T11:48:25;6.40;;;3.70;;
16731;SDS011;8484;50.904;9.192;2024-03-02T11:50:52;3.47;;;3.17;;
16731;SDS011;8484;50.904;9.192;2024-03-02T11:53:19;3.50;;;3.20;;
16731;SDS011;8484;50.904;9.192;2024-03-02T11:55:47;3.60;;;3.07;;
16731;SDS011;8484;50.904;9.192;2024-03-02T11:58:16;4.00;;;2.90;;
16731;SDS011;8484;50.904;9.192;2024-03-02T12:00:45;4.40;;;2.80;;
16731;SDS011;8484;50.904;9.192;2024-03-02T12:03:12;3.17;;;2.87;;
16731;SDS011;8484;50.904;9.192;2024-03-02T12:05:40;3.30;;;2.97;;
16731;SDS011;8484;50.904;9.192;2024-03-02T12:08:08;3.63;;;2.37;;
16731;SDS011;8484;50.904;9.192;2024-03-02T12:10:35;3.33;;;2.63;;
16731;SDS011;8484;50.904;9.192;2024-03-02T12:13:04;3.07;;;2.77;;
16731;SDS011;8484;50.904;9.192;2024-03-02T12:15:34;3.10;;;2.60;;
16731;SDS011;8484;50.904;9.192;2024-03-02T12:18:02;4.23;;;3.40;;
16731;SDS011;8484;50.904;9.192;2024-03-02T12:20:30;4.07;;;3.07;;
16731;SDS011;8484;50.904;9.192;2024-03-02T12:22:58;3.37;;;3.00;;
16731;SDS011;8484;50.904;9.192;2024-03-02T12:25:26;4.20;;;3.20;;
16731;SDS011;8484;50.904;9.192;2024-03-02T12:27:54;3.47;;;3.10;;
16731;SDS011;8484;50.904;9.192;2024-03-02T12:30:22;7.90;;;2.50;;
16731;SDS011;8484;50.904;9.192;2024-03-02T12:32:50;2.47;;;2.27;;
16731;SDS011;8484;50.904;9.192;2024-03-02T12:35:17;3.30;;;2.80;;
16731;SDS011;8484;50.904;9.192;2024-03-02T12:37:46;3.17;;;2.87;;
16731;SDS011;8484;50.904;9.192;2024-03-02T12:40:15;3.97;;;3.33;;
16731;SDS011;8484;50.904;9.192;2024-03-02T12:42:43;3.33;;;3.03;;
16731;SDS011;8484;50.904;9.192;2024-03-02T12:45:10;2.90;;;2.60;;
16731;SDS011;8484;50.904;9.192;2024-03-02T12:47:39;2.93;;;2.63;;
16731;SDS011;8484;50.904;9.192;2024-03-02T12:50:08;6.10;;;2.97;;
16731;SDS011;8484;50.904;9.192;2024-03-02T12:52:36;3.00;;;2.60;;
16731;SDS011;8484;50.904;9.192;2024-03-02T12:55:03;2.97;;;2.50;;
16731;SDS011;8484;50.904;9.192;2024-03-02T12:57:32;3.30;;;2.73;;
16731;SDS011;8484;50.904;9.192;2024-03-02T12:59:59;2.30;;;2.10;;
16731;SDS011;8484;50.904;9.192;2024-03-02T13:02:27;2.87;;;2.57;;
16731;SDS011;8484;50.904;9.192;2024-03-02T13:04:55;2.63;;;2.30;;
16731;SDS011;8484;50.904;9.192;2024-03-02T13:07:25;2.57;;;2.37;;
16731;SDS011;8484;50.904;9.192;2024-03-02T13:09:52;1.90;;;1.80;;
16731;SDS011;8484;50.904;9.192;2024-03-02T13:12:21;2.83;;;2.40;;
16731;SDS011;8484;50.904;9.192;2024-03-02T13:14:48;2.43;;;1.80;;
16731;SDS011;8484;50.904;9.192;2024-03-02T13:17:17;2.00;;;1.47;;
16731;SDS011;8484;50.904;9.192;2024-03-02T13:19:53;2.33;;;1.90;;
16731;SDS011;8484;50.904;9.192;2024-03-02T13:22:21;1.70;;;1.40;;
16731;SDS011;8484;50.904;9.192;2024-03-02T13:24:50;2.40;;;1.77;;
16731;SDS011;8484;50.904;9.192;2024-03-02T13:27:17;2.33;;;2.00;;
16731;SDS011;8484;50.904;9.192;2024-03-02T13:29:45;1.67;;;1.57;;
16731;SDS011;8484;50.904;9.192;2024-03-02T13:32:13;1.73;;;1.63;;
16731;SDS011;8484;50.904;9.192;2024-03-02T13:34:40;1.83;;;1.60;;
16731;SDS011;8484;50.904;9.192;2024-03-02T13:37:06;1.00;;;0.90;;
16731;SDS011;8484;50.904;9.192;2024-03-02T13:39:33;1.70;;;1.60;;
16731;SDS011;8484;50.904;9.192;2024-03-02T13:42:06;1.80;;;1.60;;
16731;SDS011;8484;50.904;9.192;2024-03-02T13:44:34;1.90;;;1.43;;
16731;SDS011;8484;50.904;9.192;2024-03-02T13:47:02;1.67;;;1.50;;
16731;SDS011;8484;50.904;9.192;2024-03-02T13:49:30;1.60;;;1.37;;
16731;SDS011;8484;50.904;9.192;2024-03-02T13:52:01;1.60;;;1.37;;
16731;SDS011;8484;50.904;9.192;2024-03-02T13:54:36;1.57;;;1.40;;
16731;SDS011;8484;50.904;9.192;2024-03-02T13:57:03;1.90;;;1.70;;
16731;SDS011;8484;50.904;9.192;2024-03-02T13:59:32;1.30;;;0.93;;
16731;SDS011;8484;50.904;9.192;2024-03-02T14:01:59;1.53;;;1.43;;
16731;SDS011;8484;50.904;9.192;2024-03-02T14:04:26;1.97;;;1.50;;
16731;SDS011;8484;50.904;9.192;2024-03-02T14:06:53;1.80;;;1.47;;
16731;SDS011;8484;50.904;9.192;2024-03-02T14:09:21;1.73;;;1.40;;
16731;SDS011;8484;50.904;9.192;2024-03-02T14:11:49;1.47;;;1.33;;
16731;SDS011;8484;50.904;9.192;2024-03-02T14:14:16;1.40;;;1.30;;
16731;SDS011;8484;50.904;9.192;2024-03-02T14:16:45;2.00;;;1.53;;
16731;SDS011;8484;50.904;9.192;2024-03-02T14:19:12;0.80;;;0.80;;
16731;SDS011;8484;50.904;9.192;2024-03-02T14:21:39;1.20;;;1.10;;
16731;SDS011;8484;50.904;9.192;2024-03-02T14:24:06;1.00;;;0.93;;
16731;SDS011;8484;50.904;9.192;2024-03-02T14:26:33;2.03;;;1.20;;
16731;SDS011;8484;50.904;9.192;2024-03-02T14:29:01;1.03;;;1.03;;
16731;SDS011;8484;50.904;9.192;2024-03-02T14:31:28;1.30;;;1.20;;
16731;SDS011;8484;50.904;9.192;2024-03-02T14:33:57;1.77;;;1.43;;
16731;SDS011;8484;50.904;9.192;2024-03-02T14:36:24;1.27;;;1.00;;
16731;SDS011;8484;50.904;9.192;2024-03-02T14:38:52;1.97;;;1.30;;
16731;SDS011;8484;50.904;9.192;2024-03-02T14:41:19;1.30;;;1.07;;
16731;SDS011;8484;50.904;9.192;2024-03-02T14:43:46;1.37;;;1.03;;
16731;SDS011;8484;50.904;9.192;2024-03-02T14:46:14;1.43;;;1.13;;
16731;SDS011;8484;50.904;9.192;2024-03-02T14:48:42;1.23;;;1.13;;
16731;SDS011;8484;50.904;9.192;2024-03-02T14:51:13;1.20;;;1.10;;
16731;SDS011;8484;50.904;9.192;2024-03-02T14:53:40;1.10;;;1.00;;